Time;durP1;ratioP1;P1;durP2;ratioP2;P2;SDS_P1;SDS_P2;PMS_P1;PMS_P2;Temp;Humidity;BMP_temperature;BMP_pressure;BME280_temperature;BME280_humidity;BME280_pressure;Samples;Min_cycle;Max_cycle;Signal;HPM_P1;HPM_P2
2022/08/12 00:52:34;;;;;;;;;;;;;;;24.10;35.93;100524.16;20495140;28;98570;-76
2022/08/12 01:02:37;;;;;;;;;;;;;;;24.01;36.16;100521.47;20496788;28;98614;-76
2022/08/12 01:12:38;;;;;;;;;;;;;;;24.01;36.35;100527.63;20495354;28;98230;-76
2022/08/12 01:22:44;;;;;;;;;;;;;;;23.97;36.57;100527.06;20497559;28;97351;-76
2022/08/12 01:32:46;;;;;;;;;;;;;;;23.91;36.64;100516.13;20500776;28;97784;-76
2022/08/12 01:42:49;;;;;;;;;;;;;;;23.89;36.81;100510.13;20507492;28;99300;-76
2022/08/12 01:52:55;;;;;;;;;;;;;;;23.85;37.10;100501.63;20498459;28;100560;-76
2022/08/12 02:03:24;;;;;;;;;;;;;;;23.80;37.07;100499.41;20507353;28;98463;-76
2022/08/12 02:13:24;;;;;;;;;;;;;;;23.76;37.23;100490.03;20485638;28;98486;-76
2022/08/12 02:23:26;;;;;;;;;;;;;;;23.70;37.40;100480.00;20502431;28;97992;-75
2022/08/12 02:33:27;;;;;;;;;;;;;;;23.67;37.40;100475.00;20492054;28;97415;-75
2022/08/12 02:43:27;;;;;;;;;;;;;;;23.61;37.33;100472.91;20502257;28;99228;-76
2022/08/12 02:53:29;;;;;;;;;;;;;;;23.57;37.50;100464.38;20497235;28;100659;-75
2022/08/12 03:03:31;;;;;;;;;;;;;;;23.49;37.50;100466.84;20492014;28;97982;-76
2022/08/12 03:13:37;;;;;;;;;;;;;;;23.48;37.38;100463.34;20499223;28;98454;-76
2022/08/12 03:23:39;;;;;;;;;;;;;;;23.42;37.76;100463.06;20508186;28;100087;-75
2022/08/12 03:33:43;;;;;;;;;;;;;;;23.38;37.75;100461.66;20495922;28;98048;-76
2022/08/12 04:04:55;;;;;;;;;;;;;;;23.17;38.28;100484.47;20481555;28;97771;-75
2022/08/12 04:14:56;;;;;;;;;;;;;;;23.14;38.51;100483.88;20470426;28;98548;-75
2022/08/12 04:24:59;;;;;;;;;;;;;;;23.10;38.66;100485.94;20491115;28;98583;-75
2022/08/12 04:35:00;;;;;;;;;;;;;;;23.05;38.78;100490.75;20493748;28;97329;-76
2022/08/12 04:45:00;;;;;;;;;;;;;;;22.99;38.83;100505.31;20469749;28;98566;-74
2022/08/12 04:55:01;;;;;;;;;;;;;;;22.95;39.07;100511.81;20484011;28;100513;-75
2022/08/12 05:05:02;;;;;;;;;;;;;;;22.96;39.01;100521.44;20487867;28;98845;-75
2022/08/12 05:15:04;;;;;;;;;;;;;;;23.05;38.84;100521.63;20481261;27;98450;-75
2022/08/12 05:25:05;;;;;;;;;;;;;;;23.02;39.11;100523.56;20497730;28;100939;-75
2022/08/12 05:35:06;;;;;;;;;;;;;;;23.09;39.13;100525.69;20501832;28;98444;-75
2022/08/12 05:45:07;;;;;;;;;;;;;;;23.19;38.83;100523.97;20511909;27;98271;-78
2022/08/12 05:55:09;;;;;;;;;;;;;;;23.10;38.94;100522.09;20521039;28;97266;-77
2022/08/12 06:05:09;;;;;;;;;;;;;;;23.24;38.91;100529.72;20522257;28;98574;-77
2022/08/12 06:15:10;;;;;;;;;;;;;;;23.34;38.75;100522.69;20507979;28;98901;-78
2022/08/12 06:25:17;;;;;;;;;;;;;;;23.23;38.84;100521.91;20514499;28;97415;-78
2022/08/12 06:35:18;;;;;;;;;;;;;;;23.36;38.88;100525.19;20512685;28;97590;-77
2022/08/12 06:45:18;;;;;;;;;;;;;;;23.43;39.00;100521.06;20520554;28;97995;-77
2022/08/12 06:55:19;;;;;;;;;;;;;;;23.49;38.73;100517.88;20523092;28;97019;-77
2022/08/12 07:05:23;;;;;;;;;;;;;;;23.59;38.86;100517.13;20519329;28;101731;-77
2022/08/12 07:15:24;;;;;;;;;;;;;;;23.71;39.30;100518.69;20528346;28;97522;-76
2022/08/12 07:25:30;;;;;;;;;;;;;;;23.85;38.94;100529.88;20520399;28;97986;-76
2022/08/12 07:35:31;;;;;;;;;;;;;;;23.92;38.92;100525.75;20496176;28;98297;-77
2022/08/12 07:45:35;;;;;;;;;;;;;;;23.98;38.72;100518.13;20503635;28;101732;-76
2022/08/12 07:55:38;;;;;;;;;;;;;;;24.09;38.90;100519.00;20524310;28;111396;-74
2022/08/12 08:05:48;;;;;;;;;;;;;;;24.17;38.77;100511.25;20498566;28;97494;-76
2022/08/12 08:15:52;;;;;;;;;;;;;;;24.25;38.59;100508.72;20487703;28;97394;-76
2022/08/12 08:25:53;;;;;;;;;;;;;;;24.30;38.74;100501.25;20494768;28;97222;-76
2022/08/12 08:35:53;;;;;;;;;;;;;;;24.41;38.61;100499.44;20518858;28;97692;-77
2022/08/12 08:45:57;;;;;;;;;;;;;;;24.48;38.49;100489.16;20531614;28;101528;-77
2022/08/12 08:55:58;;;;;;;;;;;;;;;24.53;38.16;100481.63;20517735;28;99232;-75
2022/08/12 09:06:01;;;;;;;;;;;;;;;24.64;38.15;100473.53;20515125;28;98062;-77
2022/08/12 09:16:02;;;;;;;;;;;;;;;24.72;37.86;100454.34;20497959;28;101082;-77
2022/08/12 09:26:02;;;;;;;;;;;;;;;24.77;37.71;100460.88;20519177;28;98513;-76
2022/08/12 09:36:03;;;;;;;;;;;;;;;24.84;37.59;100450.56;20494362;28;97350;-76
2022/08/12 09:46:03;;;;;;;;;;;;;;;24.90;37.58;100446.50;20507772;28;98372;-76
2022/08/12 09:56:04;;;;;;;;;;;;;;;24.97;38.02;100433.53;20496791;28;97755;-77
2022/08/12 10:06:05;;;;;;;;;;;;;;;25.10;38.15;100434.06;20505276;28;100618;-76
2022/08/12 10:16:12;;;;;;;;;;;;;;;25.17;37.97;100432.50;20503719;28;97916;-77
2022/08/12 10:36:32;;;;;;;;;;;;;;;25.35;36.86;100427.28;20519108;28;97102;-77
2022/08/12 10:46:35;;;;;;;;;;;;;;;25.45;36.66;100427.28;20510801;28;98531;-77
2022/08/12 10:56:36;;;;;;;;;;;;;;;25.52;35.88;100420.41;20508463;28;97662;-77
2022/08/12 11:06:37;;;;;;;;;;;;;;;25.58;35.61;100418.97;20503414;28;97871;-76
2022/08/12 11:16:38;;;;;;;;;;;;;;;25.62;35.37;100423.00;20512756;28;98177;-75
2022/08/12 11:26:38;;;;;;;;;;;;;;;25.65;35.67;100400.66;20509277;28;97610;-76
2022/08/12 11:36:47;;;;;;;;;;;;;;;25.70;36.18;100403.72;20492831;28;97480;-73
2022/08/12 11:46:48;;;;;;;;;;;;;;;25.79;36.04;100397.50;20489926;28;98249;-74
2022/08/12 11:56:48;;;;;;;;;;;;;;;25.85;36.12;100385.47;20485299;28;98085;-74
2022/08/12 12:06:49;;;;;;;;;;;;;;;25.92;36.01;100373.25;20503370;28;99058;-73
2022/08/12 12:16:49;;;;;;;;;;;;;;;26.03;35.62;100365.06;20491691;28;97974;-73
2022/08/12 12:26:49;;;;;;;;;;;;;;;26.13;34.81;100343.78;20493073;28;97174;-74
2022/08/12 12:36:51;;;;;;;;;;;;;;;26.21;35.12;100330.59;20490572;27;97928;-72
2022/08/12 12:46:51;;;;;;;;;;;;;;;26.30;34.43;100328.03;20494916;28;97777;-74
2022/08/12 12:56:53;;;;;;;;;;;;;;;26.31;35.09;100298.66;20505241;28;100824;-73
2022/08/12 13:06:53;;;;;;;;;;;;;;;26.34;34.84;100303.66;20508476;28;99015;-73
2022/08/12 13:16:54;;;;;;;;;;;;;;;26.34;33.97;100298.38;20509931;28;98994;-74
2022/08/12 13:26:55;;;;;;;;;;;;;;;26.43;34.57;100288.63;20501000;28;101333;-75
2022/08/12 13:36:55;;;;;;;;;;;;;;;26.50;34.20;100281.69;20508899;28;101281;-76
2022/08/12 13:46:56;;;;;;;;;;;;;;;26.56;33.10;100285.53;20483235;28;98480;-73
2022/08/12 13:56:56;;;;;;;;;;;;;;;26.67;32.67;100269.34;20491823;28;98660;-75
2022/08/12 14:06:57;;;;;;;;;;;;;;;26.71;32.93;100269.88;20485439;28;98380;-75
2022/08/12 14:16:59;;;;;;;;;;;;;;;26.82;32.97;100258.97;20496937;28;97846;-75
2022/08/12 14:26:59;;;;;;;;;;;;;;;26.93;33.17;100249.91;20497831;28;99896;-76
2022/08/12 14:37:04;;;;;;;;;;;;;;;26.96;33.31;100240.78;20496254;28;98433;-74
2022/08/12 14:47:07;;;;;;;;;;;;;;;27.05;32.84;100220.38;20498249;28;98159;-74
2022/08/12 14:57:09;;;;;;;;;;;;;;;27.09;32.70;100219.88;20516592;28;97983;-74
2022/08/12 15:07:11;;;;;;;;;;;;;;;27.15;31.95;100194.50;20501410;28;97343;-74
2022/08/12 15:17:12;;;;;;;;;;;;;;;27.15;32.37;100189.19;20516786;28;99626;-74
2022/08/12 15:27:12;;;;;;;;;;;;;;;27.20;31.90;100183.38;20521394;28;97007;-75
2022/08/12 15:37:12;;;;;;;;;;;;;;;27.38;32.16;100178.75;20505231;27;97645;-73
2022/08/12 15:47:15;;;;;;;;;;;;;;;27.44;32.05;100178.09;20503042;28;98561;-75
2022/08/12 15:57:18;;;;;;;;;;;;;;;27.38;32.31;100173.44;20512746;28;100363;-74
2022/08/12 16:07:23;;;;;;;;;;;;;;;27.29;32.77;100177.91;20485557;28;97814;-75
2022/08/12 16:17:23;;;;;;;;;;;;;;;27.23;33.50;100167.09;20505431;28;97745;-75
2022/08/12 16:27:24;;;;;;;;;;;;;;;27.22;33.36;100173.38;20511345;28;97741;-74
2022/08/12 16:37:25;;;;;;;;;;;;;;;27.27;34.41;100158.63;20499922;28;97688;-74
2022/08/12 16:47:34;;;;;;;;;;;;;;;27.31;34.08;100157.28;20502593;28;98610;-74
2022/08/12 16:57:35;;;;;;;;;;;;;;;27.32;33.99;100150.16;20516952;28;97699;-73
2022/08/12 17:07:39;;;;;;;;;;;;;;;27.32;32.97;100137.69;20532444;28;97345;-73
2022/08/12 17:17:41;;;;;;;;;;;;;;;27.35;33.53;100141.03;20509351;28;97997;-72
2022/08/12 17:27:46;;;;;;;;;;;;;;;27.31;33.03;100146.66;20528430;28;97038;-73
2022/08/12 17:37:47;;;;;;;;;;;;;;;27.29;33.45;100147.81;20520474;28;97488;-73
2022/08/12 17:47:49;;;;;;;;;;;;;;;27.23;32.88;100149.28;20508616;28;98593;-73
2022/08/12 17:57:56;;;;;;;;;;;;;;;27.14;33.28;100159.09;20513726;28;98203;-74
2022/08/12 18:07:56;;;;;;;;;;;;;;;27.10;33.56;100155.13;20491691;28;99126;-74
2022/08/12 18:17:58;;;;;;;;;;;;;;;27.04;33.33;100160.25;20520849;28;98195;-73
2022/08/12 18:28:00;;;;;;;;;;;;;;;26.87;33.72;100164.69;20530757;28;97243;-74
2022/08/12 18:38:05;;;;;;;;;;;;;;;26.81;34.13;100177.63;20513557;28;98068;-73
2022/08/12 18:48:06;;;;;;;;;;;;;;;26.74;34.31;100173.91;20497386;28;98433;-75
2022/08/12 18:58:08;;;;;;;;;;;;;;;26.62;34.33;100175.19;20488654;28;98647;-75
2022/08/12 19:08:08;;;;;;;;;;;;;;;26.49;34.69;100181.78;20494818;27;99201;-74
2022/08/12 19:18:12;;;;;;;;;;;;;;;26.36;35.29;100176.09;20504645;27;98206;-74
2022/08/12 19:28:17;;;;;;;;;;;;;;;26.31;35.36;100178.38;20503813;28;98645;-73
2022/08/12 19:38:17;;;;;;;;;;;;;;;26.18;35.80;100187.63;20509950;28;97926;-75
2022/08/12 19:48:19;;;;;;;;;;;;;;;26.06;36.11;100194.13;20510846;28;98394;-74
2022/08/12 19:58:20;;;;;;;;;;;;;;;25.92;36.56;100184.91;20506289;28;97578;-75
2022/08/12 20:08:22;;;;;;;;;;;;;;;25.84;36.60;100179.53;20491135;28;101639;-74
2022/08/12 20:18:22;;;;;;;;;;;;;;;25.71;36.56;100183.44;20471949;28;98475;-74
2022/08/12 20:28:22;;;;;;;;;;;;;;;25.59;36.93;100176.72;20490474;28;97291;-74
2022/08/12 20:38:22;;;;;;;;;;;;;;;25.55;36.94;100178.00;20477477;28;97820;-72
2022/08/12 20:48:23;;;;;;;;;;;;;;;25.38;37.42;100180.50;20485860;28;101391;-72
2022/08/12 20:58:25;;;;;;;;;;;;;;;25.29;37.40;100176.06;20493788;28;98676;-73
2022/08/12 21:08:26;;;;;;;;;;;;;;;25.19;37.49;100188.56;20483477;28;98062;-74
2022/08/12 21:18:26;;;;;;;;;;;;;;;25.10;37.13;100187.66;20484073;28;98797;-73
2022/08/12 21:28:26;;;;;;;;;;;;;;;25.14;37.16;100198.81;20430970;28;100205;-73
2022/08/12 21:38:30;;;;;;;;;;;;;;;24.99;37.24;100204.59;20452244;28;98759;-73
2022/08/12 21:48:30;;;;;;;;;;;;;;;24.81;37.86;100201.91;20496204;28;100186;-73
2022/08/12 21:58:30;;;;;;;;;;;;;;;24.75;37.89;100210.44;20498534;28;98502;-73
2022/08/12 22:08:31;;;;;;;;;;;;;;;24.66;37.72;100219.25;20494278;28;97805;-73
2022/08/12 22:18:32;;;;;;;;;;;;;;;24.49;38.21;100215.56;20494433;28;97819;-72
2022/08/12 22:38:58;;;;;;;;;;;;;;;24.28;38.45;100208.66;20484597;28;98536;-72
2022/08/12 22:48:59;;;;;;;;;;;;;;;24.41;38.87;100218.91;20477600;28;97881;-73
2022/08/12 22:59:02;;;;;;;;;;;;;;;24.38;39.47;100200.69;20481018;28;98466;-74
2022/08/12 23:09:03;;;;;;;;;;;;;;;24.35;39.64;100200.94;20470125;28;98495;-75
2022/08/12 23:19:05;;;;;;;;;;;;;;;24.27;39.57;100188.44;20479204;28;97965;-75
2022/08/12 23:29:15;;;;;;;;;;;;;;;24.20;39.39;100185.53;20468966;28;97784;-75
2022/08/12 23:39:17;;;;;;;;;;;;;;;24.23;39.35;100174.69;20463517;28;98644;-74
2022/08/12 23:49:17;;;;;;;;;;;;;;;24.21;39.24;100171.34;20473622;28;101083;-73
2022/08/12 23:59:17;;;;;;;;;;;;;;;24.16;39.36;100172.72;20476916;28;100392;-73
